sensor_id;sensor_type;location;lat;lon;timestamp;P1;durP1;ratioP1;P2;durP2;ratioP2
32323;SDS011;25666;44.350;9.222;2024-02-04T00:01:40;21.90;;;10.50;;
32323;SDS011;25666;44.350;9.222;2024-02-04T00:04:05;19.52;;;9.77;;
32323;SDS011;25666;44.350;9.222;2024-02-04T00:06:31;24.52;;;10.02;;
32323;SDS011;25666;44.350;9.222;2024-02-04T00:08:56;18.50;;;10.40;;
32323;SDS011;25666;44.350;9.222;2024-02-04T00:11:22;17.40;;;8.70;;
32323;SDS011;25666;44.350;9.222;2024-02-04T00:13:48;21.73;;;10.55;;
32323;SDS011;25666;44.350;9.222;2024-02-04T00:16:13;19.95;;;8.90;;
32323;SDS011;25666;44.350;9.222;2024-02-04T00:18:39;18.67;;;8.88;;
32323;SDS011;25666;44.350;9.222;2024-02-04T00:21:05;20.67;;;9.48;;
32323;SDS011;25666;44.350;9.222;2024-02-04T00:23:30;18.42;;;8.68;;
32323;SDS011;25666;44.350;9.222;2024-02-04T00:25:56;15.85;;;7.28;;
32323;SDS011;25666;44.350;9.222;2024-02-04T00:28:22;14.27;;;7.80;;
32323;SDS011;25666;44.350;9.222;2024-02-04T00:30:48;20.25;;;9.13;;
32323;SDS011;25666;44.350;9.222;2024-02-04T00:33:15;25.08;;;9.18;;
32323;SDS011;25666;44.350;9.222;2024-02-04T00:35:41;21.40;;;8.70;;
32323;SDS011;25666;44.350;9.222;2024-02-04T00:38:07;17.42;;;8.50;;
32323;SDS011;25666;44.350;9.222;2024-02-04T00:40:33;19.88;;;7.43;;
32323;SDS011;25666;44.350;9.222;2024-02-04T00:42:59;16.67;;;7.35;;
32323;SDS011;25666;44.350;9.222;2024-02-04T00:45:25;20.33;;;7.88;;
32323;SDS011;25666;44.350;9.222;2024-02-04T00:47:51;18.30;;;7.72;;
32323;SDS011;25666;44.350;9.222;2024-02-04T00:50:17;13.05;;;7.32;;
32323;SDS011;25666;44.350;9.222;2024-02-04T00:52:42;13.75;;;6.72;;
32323;SDS011;25666;44.350;9.222;2024-02-04T00:55:08;14.52;;;7.30;;
32323;SDS011;25666;44.350;9.222;2024-02-04T00:57:34;16.95;;;7.88;;
32323;SDS011;25666;44.350;9.222;2024-02-04T01:00:00;18.77;;;6.78;;
32323;SDS011;25666;44.350;9.222;2024-02-04T01:02:26;14.32;;;6.65;;
32323;SDS011;25666;44.350;9.222;2024-02-04T01:04:51;15.50;;;6.72;;
32323;SDS011;25666;44.350;9.222;2024-02-04T01:07:17;15.30;;;6.00;;
32323;SDS011;25666;44.350;9.222;2024-02-04T01:09:42;22.10;;;7.53;;
32323;SDS011;25666;44.350;9.222;2024-02-04T01:12:08;22.52;;;8.00;;
32323;SDS011;25666;44.350;9.222;2024-02-04T01:14:34;21.55;;;7.93;;
32323;SDS011;25666;44.350;9.222;2024-02-04T01:16:59;11.48;;;6.78;;
32323;SDS011;25666;44.350;9.222;2024-02-04T01:19:25;12.63;;;6.22;;
32323;SDS011;25666;44.350;9.222;2024-02-04T01:21:51;14.27;;;7.70;;
32323;SDS011;25666;44.350;9.222;2024-02-04T01:24:16;15.15;;;6.35;;
32323;SDS011;25666;44.350;9.222;2024-02-04T01:26:42;15.40;;;6.22;;
32323;SDS011;25666;44.350;9.222;2024-02-04T01:29:07;12.40;;;5.97;;
32323;SDS011;25666;44.350;9.222;2024-02-04T01:31:33;14.25;;;5.93;;
32323;SDS011;25666;44.350;9.222;2024-02-04T01:33:59;12.93;;;6.25;;
32323;SDS011;25666;44.350;9.222;2024-02-04T01:36:25;10.98;;;5.80;;
32323;SDS011;25666;44.350;9.222;2024-02-04T01:38:50;18.55;;;6.22;;
32323;SDS011;25666;44.350;9.222;2024-02-04T01:41:16;13.93;;;6.40;;
32323;SDS011;25666;44.350;9.222;2024-02-04T01:43:41;8.50;;;5.68;;
32323;SDS011;25666;44.350;9.222;2024-02-04T01:46:07;12.27;;;6.50;;
32323;SDS011;25666;44.350;9.222;2024-02-04T01:48:33;12.38;;;6.18;;
32323;SDS011;25666;44.350;9.222;2024-02-04T01:50:59;10.68;;;5.93;;
32323;SDS011;25666;44.350;9.222;2024-02-04T01:53:26;10.70;;;5.28;;
32323;SDS011;25666;44.350;9.222;2024-02-04T01:55:54;11.48;;;6.15;;
32323;SDS011;25666;44.350;9.222;2024-02-04T01:58:21;12.32;;;5.80;;
32323;SDS011;25666;44.350;9.222;2024-02-04T02:00:48;14.13;;;5.32;;
32323;SDS011;25666;44.350;9.222;2024-02-04T02:03:14;11.38;;;5.85;;
32323;SDS011;25666;44.350;9.222;2024-02-04T02:05:41;12.27;;;6.00;;
32323;SDS011;25666;44.350;9.222;2024-02-04T02:08:07;12.15;;;5.28;;
32323;SDS011;25666;44.350;9.222;2024-02-04T02:10:33;13.48;;;5.63;;
32323;SDS011;25666;44.350;9.222;2024-02-04T02:13:00;10.98;;;6.15;;
32323;SDS011;25666;44.350;9.222;2024-02-04T02:15:32;13.90;;;6.55;;
32323;SDS011;25666;44.350;9.222;2024-02-04T02:18:03;12.63;;;5.80;;
32323;SDS011;25666;44.350;9.222;2024-02-04T02:23:34;12.90;;;5.95;;
32323;SDS011;25666;44.350;9.222;2024-02-04T02:26:02;8.27;;;5.38;;
32323;SDS011;25666;44.350;9.222;2024-02-04T02:28:29;8.68;;;5.10;;
32323;SDS011;25666;44.350;9.222;2024-02-04T02:30:54;9.60;;;5.50;;
32323;SDS011;25666;44.350;9.222;2024-02-04T02:33:20;11.27;;;5.30;;
32323;SDS011;25666;44.350;9.222;2024-02-04T02:35:46;10.50;;;5.35;;
32323;SDS011;25666;44.350;9.222;2024-02-04T02:38:26;12.63;;;5.90;;
32323;SDS011;25666;44.350;9.222;2024-02-04T02:40:59;13.00;;;5.65;;
32323;SDS011;25666;44.350;9.222;2024-02-04T02:43:28;13.88;;;5.40;;
32323;SDS011;25666;44.350;9.222;2024-02-04T02:45:56;12.30;;;6.43;;
32323;SDS011;25666;44.350;9.222;2024-02-04T02:48:22;12.13;;;7.05;;
32323;SDS011;25666;44.350;9.222;2024-02-04T02:50:49;12.70;;;6.05;;
32323;SDS011;25666;44.350;9.222;2024-02-04T02:53:15;13.82;;;6.10;;
32323;SDS011;25666;44.350;9.222;2024-02-04T02:55:44;13.07;;;5.45;;
32323;SDS011;25666;44.350;9.222;2024-02-04T02:58:12;8.75;;;4.82;;
32323;SDS011;25666;44.350;9.222;2024-02-04T03:00:39;11.25;;;5.70;;
32323;SDS011;25666;44.350;9.222;2024-02-04T03:03:05;12.13;;;6.03;;
32323;SDS011;25666;44.350;9.222;2024-02-04T03:05:31;10.05;;;5.68;;
32323;SDS011;25666;44.350;9.222;2024-02-04T03:07:57;9.82;;;5.20;;
32323;SDS011;25666;44.350;9.222;2024-02-04T03:10:22;13.25;;;5.25;;
32323;SDS011;25666;44.350;9.222;2024-02-04T03:12:48;10.80;;;6.22;;
32323;SDS011;25666;44.350;9.222;2024-02-04T03:15:13;9.52;;;5.45;;
32323;SDS011;25666;44.350;9.222;2024-02-04T03:17:39;12.85;;;5.47;;
32323;SDS011;25666;44.350;9.222;2024-02-04T03:20:05;12.10;;;5.32;;
32323;SDS011;25666;44.350;9.222;2024-02-04T03:22:31;13.32;;;5.20;;
32323;SDS011;25666;44.350;9.222;2024-02-04T03:24:57;10.25;;;5.55;;
32323;SDS011;25666;44.350;9.222;2024-02-04T03:27:22;13.40;;;5.55;;
32323;SDS011;25666;44.350;9.222;2024-02-04T03:29:48;12.57;;;6.13;;
32323;SDS011;25666;44.350;9.222;2024-02-04T03:32:14;8.13;;;5.28;;
32323;SDS011;25666;44.350;9.222;2024-02-04T03:34:43;10.27;;;4.43;;
32323;SDS011;25666;44.350;9.222;2024-02-04T03:37:09;9.20;;;4.88;;
32323;SDS011;25666;44.350;9.222;2024-02-04T03:39:35;7.68;;;4.22;;
32323;SDS011;25666;44.350;9.222;2024-02-04T03:42:01;8.57;;;4.32;;
32323;SDS011;25666;44.350;9.222;2024-02-04T03:44:27;16.10;;;5.00;;
32323;SDS011;25666;44.350;9.222;2024-02-04T03:46:52;11.95;;;5.40;;
32323;SDS011;25666;44.350;9.222;2024-02-04T03:49:18;9.40;;;5.38;;
32323;SDS011;25666;44.350;9.222;2024-02-04T03:51:44;9.60;;;4.45;;
32323;SDS011;25666;44.350;9.222;2024-02-04T03:54:09;9.80;;;5.20;;
32323;SDS011;25666;44.350;9.222;2024-02-04T03:56:35;10.18;;;5.05;;
32323;SDS011;25666;44.350;9.222;2024-02-04T03:59:01;8.40;;;4.00;;
32323;SDS011;25666;44.350;9.222;2024-02-04T04:01:26;8.45;;;4.05;;
32323;SDS011;25666;44.350;9.222;2024-02-04T04:03:52;14.30;;;5.05;;
32323;SDS011;25666;44.350;9.222;2024-02-04T04:06:18;11.82;;;4.22;;
32323;SDS011;25666;44.350;9.222;2024-02-04T04:08:43;10.00;;;4.93;;
32323;SDS011;25666;44.350;9.222;2024-02-04T04:11:09;14.13;;;4.95;;
32323;SDS011;25666;44.350;9.222;2024-02-04T04:13:36;10.98;;;5.32;;
32323;SDS011;25666;44.350;9.222;2024-02-04T04:16:03;10.38;;;4.60;;
32323;SDS011;25666;44.350;9.222;2024-02-04T04:18:29;6.10;;;3.60;;
32323;SDS011;25666;44.350;9.222;2024-02-04T04:20:54;7.15;;;4.18;;
32323;SDS011;25666;44.350;9.222;2024-02-04T04:23:20;10.88;;;4.97;;
32323;SDS011;25666;44.350;9.222;2024-02-04T04:25:46;13.02;;;5.45;;
32323;SDS011;25666;44.350;9.222;2024-02-04T04:28:12;8.13;;;4.15;;
32323;SDS011;25666;44.350;9.222;2024-02-04T04:30:37;6.57;;;3.72;;
32323;SDS011;25666;44.350;9.222;2024-02-04T04:33:03;14.35;;;5.18;;
32323;SDS011;25666;44.350;9.222;2024-02-04T04:35:29;7.88;;;4.90;;
32323;SDS011;25666;44.350;9.222;2024-02-04T04:37:55;18.60;;;6.20;;
32323;SDS011;25666;44.350;9.222;2024-02-04T04:40:20;9.90;;;4.28;;
32323;SDS011;25666;44.350;9.222;2024-02-04T04:42:46;8.95;;;4.60;;
32323;SDS011;25666;44.350;9.222;2024-02-04T04:45:11;7.55;;;4.20;;
32323;SDS011;25666;44.350;9.222;2024-02-04T04:47:37;8.10;;;3.90;;
32323;SDS011;25666;44.350;9.222;2024-02-04T04:50:04;9.15;;;4.30;;
32323;SDS011;25666;44.350;9.222;2024-02-04T04:52:31;8.60;;;4.45;;
32323;SDS011;25666;44.350;9.222;2024-02-04T04:54:57;10.38;;;5.10;;
32323;SDS011;25666;44.350;9.222;2024-02-04T04:57:22;8.95;;;3.75;;
32323;SDS011;25666;44.350;9.222;2024-02-04T04:59:48;8.40;;;4.68;;
32323;SDS011;25666;44.350;9.222;2024-02-04T05:02:14;10.98;;;4.28;;
32323;SDS011;25666;44.350;9.222;2024-02-04T05:04:42;9.27;;;4.95;;
32323;SDS011;25666;44.350;9.222;2024-02-04T05:07:09;12.35;;;4.13;;
32323;SDS011;25666;44.350;9.222;2024-02-04T05:09:35;5.82;;;4.18;;
32323;SDS011;25666;44.350;9.222;2024-02-04T05:12:02;15.68;;;4.70;;
32323;SDS011;25666;44.350;9.222;2024-02-04T05:14:28;9.40;;;3.70;;
32323;SDS011;25666;44.350;9.222;2024-02-04T05:16:53;9.40;;;3.78;;
32323;SDS011;25666;44.350;9.222;2024-02-04T05:19:19;7.85;;;3.60;;
32323;SDS011;25666;44.350;9.222;2024-02-04T05:21:44;11.00;;;5.10;;
32323;SDS011;25666;44.350;9.222;2024-02-04T05:24:10;12.52;;;3.78;;
32323;SDS011;25666;44.350;9.222;2024-02-04T05:26:36;8.90;;;4.18;;
32323;SDS011;25666;44.350;9.222;2024-02-04T05:29:01;12.70;;;5.75;;
32323;SDS011;25666;44.350;9.222;2024-02-04T05:31:27;9.82;;;3.92;;
32323;SDS011;25666;44.350;9.222;2024-02-04T05:33:52;7.78;;;3.88;;
32323;SDS011;25666;44.350;9.222;2024-02-04T05:36:18;8.43;;;3.75;;
32323;SDS011;25666;44.350;9.222;2024-02-04T05:38:45;7.88;;;4.30;;
32323;SDS011;25666;44.350;9.222;2024-02-04T05:41:10;9.70;;;4.05;;
32323;SDS011;25666;44.350;9.222;2024-02-04T05:43:36;11.48;;;4.00;;
32323;SDS011;25666;44.350;9.222;2024-02-04T05:46:01;6.68;;;4.13;;
32323;SDS011;25666;44.350;9.222;2024-02-04T05:48:27;7.50;;;3.80;;
32323;SDS011;25666;44.350;9.222;2024-02-04T05:50:53;6.38;;;3.65;;
32323;SDS011;25666;44.350;9.222;2024-02-04T05:53:18;7.05;;;3.28;;
32323;SDS011;25666;44.350;9.222;2024-02-04T05:55:44;6.75;;;3.67;;
32323;SDS011;25666;44.350;9.222;2024-02-04T05:58:10;9.70;;;3.97;;
32323;SDS011;25666;44.350;9.222;2024-02-04T06:00:35;10.02;;;3.88;;
32323;SDS011;25666;44.350;9.222;2024-02-04T06:03:01;7.95;;;4.30;;
32323;SDS011;25666;44.350;9.222;2024-02-04T06:05:27;7.43;;;3.95;;
32323;SDS011;25666;44.350;9.222;2024-02-04T06:07:52;6.57;;;3.92;;
32323;SDS011;25666;44.350;9.222;2024-02-04T06:10:18;7.03;;;4.03;;
32323;SDS011;25666;44.350;9.222;2024-02-04T06:12:43;9.23;;;3.72;;
32323;SDS011;25666;44.350;9.222;2024-02-04T06:15:14;8.48;;;3.75;;
32323;SDS011;25666;44.350;9.222;2024-02-04T06:17:40;8.68;;;4.03;;
32323;SDS011;25666;44.350;9.222;2024-02-04T06:20:06;8.40;;;3.17;;
32323;SDS011;25666;44.350;9.222;2024-02-04T06:22:32;8.60;;;3.33;;
32323;SDS011;25666;44.350;9.222;2024-02-04T06:24:59;7.30;;;3.95;;
32323;SDS011;25666;44.350;9.222;2024-02-04T06:27:24;7.72;;;3.85;;
32323;SDS011;25666;44.350;9.222;2024-02-04T06:29:50;9.93;;;4.38;;
32323;SDS011;25666;44.350;9.222;2024-02-04T06:32:16;7.65;;;3.60;;
32323;SDS011;25666;44.350;9.222;2024-02-04T06:34:41;5.43;;;3.45;;
32323;SDS011;25666;44.350;9.222;2024-02-04T06:37:07;9.85;;;3.45;;
32323;SDS011;25666;44.350;9.222;2024-02-04T06:39:32;8.23;;;4.10;;
32323;SDS011;25666;44.350;9.222;2024-02-04T06:41:58;8.00;;;3.42;;
32323;SDS011;25666;44.350;9.222;2024-02-04T06:44:23;8.18;;;3.28;;
32323;SDS011;25666;44.350;9.222;2024-02-04T06:46:49;7.45;;;3.45;;
32323;SDS011;25666;44.350;9.222;2024-02-04T06:49:14;5.65;;;3.85;;
32323;SDS011;25666;44.350;9.222;2024-02-04T06:51:43;9.00;;;3.45;;
32323;SDS011;25666;44.350;9.222;2024-02-04T06:54:09;11.88;;;3.88;;
32323;SDS011;25666;44.350;9.222;2024-02-04T06:56:35;10.27;;;3.75;;
32323;SDS011;25666;44.350;9.222;2024-02-04T06:59:02;11.23;;;4.03;;
32323;SDS011;25666;44.350;9.222;2024-02-04T07:01:27;9.73;;;4.30;;
32323;SDS011;25666;44.350;9.222;2024-02-04T07:03:53;11.98;;;3.78;;
32323;SDS011;25666;44.350;9.222;2024-02-04T07:06:18;12.32;;;4.43;;
32323;SDS011;25666;44.350;9.222;2024-02-04T07:08:44;5.95;;;3.58;;
32323;SDS011;25666;44.350;9.222;2024-02-04T07:11:09;7.88;;;3.92;;
32323;SDS011;25666;44.350;9.222;2024-02-04T07:13:35;8.40;;;4.00;;
32323;SDS011;25666;44.350;9.222;2024-02-04T07:16:00;7.72;;;3.13;;
32323;SDS011;25666;44.350;9.222;2024-02-04T07:18:26;9.45;;;4.45;;
32323;SDS011;25666;44.350;9.222;2024-02-04T07:20:51;8.55;;;4.00;;
32323;SDS011;25666;44.350;9.222;2024-02-04T07:23:17;9.15;;;4.32;;
32323;SDS011;25666;44.350;9.222;2024-02-04T07:25:43;8.65;;;3.22;;
32323;SDS011;25666;44.350;9.222;2024-02-04T07:28:08;7.72;;;4.20;;
32323;SDS011;25666;44.350;9.222;2024-02-04T07:30:34;14.68;;;4.38;;
32323;SDS011;25666;44.350;9.222;2024-02-04T07:32:59;7.90;;;4.25;;
32323;SDS011;25666;44.350;9.222;2024-02-04T07:35:25;8.73;;;3.65;;
32323;SDS011;25666;44.350;9.222;2024-02-04T07:37:50;10.63;;;3.92;;
32323;SDS011;25666;44.350;9.222;2024-02-04T07:40:16;5.65;;;3.33;;
32323;SDS011;25666;44.350;9.222;2024-02-04T07:42:42;7.50;;;3.95;;
32323;SDS011;25666;44.350;9.222;2024-02-04T07:45:07;11.98;;;4.38;;
32323;SDS011;25666;44.350;9.222;2024-02-04T07:47:35;8.75;;;4.53;;
32323;SDS011;25666;44.350;9.222;2024-02-04T07:50:01;13.90;;;4.50;;
32323;SDS011;25666;44.350;9.222;2024-02-04T07:52:26;7.47;;;4.13;;
32323;SDS011;25666;44.350;9.222;2024-02-04T07:54:52;9.10;;;4.28;;
32323;SDS011;25666;44.350;9.222;2024-02-04T07:57:17;11.45;;;4.68;;
32323;SDS011;25666;44.350;9.222;2024-02-04T07:59:43;9.38;;;4.43;;
32323;SDS011;25666;44.350;9.222;2024-02-04T08:02:09;15.07;;;4.70;;
32323;SDS011;25666;44.350;9.222;2024-02-04T08:04:34;10.68;;;5.07;;
32323;SDS011;25666;44.350;9.222;2024-02-04T08:07:00;9.23;;;4.70;;
32323;SDS011;25666;44.350;9.222;2024-02-04T08:09:25;8.90;;;4.75;;
32323;SDS011;25666;44.350;9.222;2024-02-04T08:11:51;10.15;;;4.65;;
32323;SDS011;25666;44.350;9.222;2024-02-04T08:14:16;8.98;;;4.00;;
32323;SDS011;25666;44.350;9.222;2024-02-04T08:16:43;9.23;;;4.07;;
32323;SDS011;25666;44.350;9.222;2024-02-04T08:19:11;10.57;;;4.90;;
32323;SDS011;25666;44.350;9.222;2024-02-04T08:21:37;10.48;;;5.13;;
32323;SDS011;25666;44.350;9.222;2024-02-04T08:24:02;16.17;;;6.18;;
32323;SDS011;25666;44.350;9.222;2024-02-04T08:26:28;7.18;;;4.22;;
32323;SDS011;25666;44.350;9.222;2024-02-04T08:28:54;11.65;;;5.03;;
32323;SDS011;25666;44.350;9.222;2024-02-04T08:31:19;9.80;;;4.43;;
32323;SDS011;25666;44.350;9.222;2024-02-04T08:33:46;10.68;;;5.28;;
32323;SDS011;25666;44.350;9.222;2024-02-04T08:36:11;10.63;;;4.40;;
32323;SDS011;25666;44.350;9.222;2024-02-04T08:38:37;7.18;;;4.32;;
32323;SDS011;25666;44.350;9.222;2024-02-04T08:41:03;10.48;;;3.80;;
32323;SDS011;25666;44.350;9.222;2024-02-04T08:43:29;14.60;;;4.30;;
32323;SDS011;25666;44.350;9.222;2024-02-04T08:45:55;11.88;;;4.80;;
32323;SDS011;25666;44.350;9.222;2024-02-04T08:48:20;12.38;;;3.95;;
32323;SDS011;25666;44.350;9.222;2024-02-04T08:50:46;11.00;;;4.15;;
32323;SDS011;25666;44.350;9.222;2024-02-04T08:53:11;7.80;;;3.83;;
32323;SDS011;25666;44.350;9.222;2024-02-04T08:55:37;16.02;;;5.65;;
32323;SDS011;25666;44.350;9.222;2024-02-04T08:58:03;13.95;;;6.15;;
32323;SDS011;25666;44.350;9.222;2024-02-04T09:00:28;20.80;;;5.53;;
32323;SDS011;25666;44.350;9.222;2024-02-04T09:02:54;17.15;;;5.07;;
32323;SDS011;25666;44.350;9.222;2024-02-04T09:05:20;19.58;;;5.30;;
32323;SDS011;25666;44.350;9.222;2024-02-04T09:07:46;11.57;;;5.90;;
32323;SDS011;25666;44.350;9.222;2024-02-04T09:10:11;10.75;;;5.93;;
32323;SDS011;25666;44.350;9.222;2024-02-04T09:12:37;18.05;;;5.95;;
32323;SDS011;25666;44.350;9.222;2024-02-04T09:15:03;10.93;;;5.50;;
32323;SDS011;25666;44.350;9.222;2024-02-04T09:17:30;10.57;;;5.55;;
32323;SDS011;25666;44.350;9.222;2024-02-04T09:19:58;18.23;;;7.20;;
32323;SDS011;25666;44.350;9.222;2024-02-04T09:22:24;16.58;;;8.10;;
32323;SDS011;25666;44.350;9.222;2024-02-04T09:24:50;25.08;;;10.25;;
32323;SDS011;25666;44.350;9.222;2024-02-04T09:27:15;28.80;;;12.40;;
32323;SDS011;25666;44.350;9.222;2024-02-04T09:29:41;41.58;;;15.63;;
32323;SDS011;25666;44.350;9.222;2024-02-04T09:32:07;32.28;;;14.43;;
32323;SDS011;25666;44.350;9.222;2024-02-04T09:34:33;38.78;;;13.52;;
32323;SDS011;25666;44.350;9.222;2024-02-04T09:36:58;27.60;;;12.00;;
32323;SDS011;25666;44.350;9.222;2024-02-04T09:39:24;31.48;;;13.52;;
32323;SDS011;25666;44.350;9.222;2024-02-04T09:41:49;32.53;;;13.38;;
32323;SDS011;25666;44.350;9.222;2024-02-04T09:44:15;29.10;;;13.00;;
32323;SDS011;25666;44.350;9.222;2024-02-04T09:46:41;30.02;;;12.35;;
32323;SDS011;25666;44.350;9.222;2024-02-04T09:49:07;29.50;;;12.70;;
32323;SDS011;25666;44.350;9.222;2024-02-04T09:51:34;27.50;;;11.48;;
32323;SDS011;25666;44.350;9.222;2024-02-04T09:54:02;24.63;;;10.60;;
32323;SDS011;25666;44.350;9.222;2024-02-04T09:56:31;29.75;;;9.73;;
32323;SDS011;25666;44.350;9.222;2024-02-04T09:59:00;22.65;;;8.98;;
32323;SDS011;25666;44.350;9.222;2024-02-04T10:01:26;21.55;;;9.18;;
32323;SDS011;25666;44.350;9.222;2024-02-04T10:03:51;19.25;;;8.38;;
32323;SDS011;25666;44.350;9.222;2024-02-04T10:06:17;23.67;;;9.73;;
32323;SDS011;25666;44.350;9.222;2024-02-04T10:08:43;17.02;;;8.68;;
32323;SDS011;25666;44.350;9.222;2024-02-04T10:11:09;19.70;;;9.18;;
32323;SDS011;25666;44.350;9.222;2024-02-04T10:13:44;19.08;;;8.10;;
32323;SDS011;25666;44.350;9.222;2024-02-04T10:16:11;19.83;;;8.05;;
32323;SDS011;25666;44.350;9.222;2024-02-04T10:18:42;17.35;;;7.80;;
32323;SDS011;25666;44.350;9.222;2024-02-04T10:23:45;10.88;;;6.40;;
32323;SDS011;25666;44.350;9.222;2024-02-04T10:26:13;13.07;;;6.15;;
32323;SDS011;25666;44.350;9.222;2024-02-04T10:28:40;12.90;;;6.60;;
32323;SDS011;25666;44.350;9.222;2024-02-04T10:31:09;14.13;;;6.05;;
32323;SDS011;25666;44.350;9.222;2024-02-04T10:33:35;23.30;;;7.97;;
32323;SDS011;25666;44.350;9.222;2024-02-04T10:36:01;16.98;;;5.93;;
32323;SDS011;25666;44.350;9.222;2024-02-04T10:38:27;12.43;;;5.10;;
32323;SDS011;25666;44.350;9.222;2024-02-04T10:40:53;11.57;;;5.78;;
32323;SDS011;25666;44.350;9.222;2024-02-04T10:43:23;14.65;;;6.15;;
32323;SDS011;25666;44.350;9.222;2024-02-04T10:45:51;11.27;;;6.55;;
32323;SDS011;25666;44.350;9.222;2024-02-04T10:48:21;13.52;;;5.22;;
32323;SDS011;25666;44.350;9.222;2024-02-04T10:50:52;12.80;;;5.13;;
32323;SDS011;25666;44.350;9.222;2024-02-04T10:53:21;12.07;;;4.80;;
32323;SDS011;25666;44.350;9.222;2024-02-04T10:55:47;9.25;;;4.75;;
32323;SDS011;25666;44.350;9.222;2024-02-04T10:58:17;13.43;;;5.97;;
32323;SDS011;25666;44.350;9.222;2024-02-04T11:00:44;12.82;;;4.43;;
32323;SDS011;25666;44.350;9.222;2024-02-04T11:03:11;9.07;;;4.03;;
32323;SDS011;25666;44.350;9.222;2024-02-04T11:05:38;12.48;;;5.32;;
32323;SDS011;25666;44.350;9.222;2024-02-04T11:08:07;14.65;;;5.13;;
32323;SDS011;25666;44.350;9.222;2024-02-04T11:10:35;12.63;;;5.85;;
32323;SDS011;25666;44.350;9.222;2024-02-04T11:13:04;23.70;;;5.82;;
32323;SDS011;25666;44.350;9.222;2024-02-04T11:15:33;20.85;;;6.55;;
32323;SDS011;25666;44.350;9.222;2024-02-04T11:21:13;16.98;;;5.70;;
32323;SDS011;25666;44.350;9.222;2024-02-04T11:26:34;16.52;;;5.53;;
32323;SDS011;25666;44.350;9.222;2024-02-04T11:29:00;13.15;;;4.63;;
32323;SDS011;25666;44.350;9.222;2024-02-04T11:31:28;8.80;;;4.25;;
32323;SDS011;25666;44.350;9.222;2024-02-04T11:33:55;13.63;;;5.80;;
32323;SDS011;25666;44.350;9.222;2024-02-04T11:36:24;12.32;;;4.78;;
32323;SDS011;25666;44.350;9.222;2024-02-04T11:38:50;9.00;;;5.20;;
32323;SDS011;25666;44.350;9.222;2024-02-04T11:41:22;12.40;;;4.65;;
32323;SDS011;25666;44.350;9.222;2024-02-04T11:43:51;13.93;;;4.93;;
32323;SDS011;25666;44.350;9.222;2024-02-04T11:46:19;13.07;;;4.78;;
32323;SDS011;25666;44.350;9.222;2024-02-04T11:48:51;13.00;;;5.20;;
32323;SDS011;25666;44.350;9.222;2024-02-04T11:51:21;10.40;;;5.35;;
32323;SDS011;25666;44.350;9.222;2024-02-04T11:53:48;12.32;;;4.63;;
32323;SDS011;25666;44.350;9.222;2024-02-04T11:56:13;11.98;;;4.63;;
32323;SDS011;25666;44.350;9.222;2024-02-04T11:58:39;10.60;;;4.00;;
32323;SDS011;25666;44.350;9.222;2024-02-04T12:01:09;10.48;;;4.38;;
32323;SDS011;25666;44.350;9.222;2024-02-04T12:03:35;9.52;;;4.68;;
32323;SDS011;25666;44.350;9.222;2024-02-04T12:06:05;14.60;;;5.47;;
32323;SDS011;25666;44.350;9.222;2024-02-04T12:08:32;12.20;;;4.45;;
32323;SDS011;25666;44.350;9.222;2024-02-04T12:10:59;17.58;;;5.80;;
32323;SDS011;25666;44.350;9.222;2024-02-04T12:13:25;12.30;;;5.40;;
32323;SDS011;25666;44.350;9.222;2024-02-04T12:15:53;15.25;;;4.45;;
32323;SDS011;25666;44.350;9.222;2024-02-04T12:18:18;10.27;;;3.83;;
32323;SDS011;25666;44.350;9.222;2024-02-04T12:20:47;8.98;;;4.28;;
32323;SDS011;25666;44.350;9.222;2024-02-04T12:23:16;11.88;;;4.13;;
32323;SDS011;25666;44.350;9.222;2024-02-04T12:25:43;15.73;;;4.72;;
32323;SDS011;25666;44.350;9.222;2024-02-04T12:28:10;13.00;;;4.65;;
32323;SDS011;25666;44.350;9.222;2024-02-04T12:30:35;10.88;;;3.95;;
32323;SDS011;25666;44.350;9.222;2024-02-04T12:33:02;12.02;;;4.10;;
32323;SDS011;25666;44.350;9.222;2024-02-04T12:35:32;13.55;;;4.35;;
32323;SDS011;25666;44.350;9.222;2024-02-04T12:37:58;17.42;;;4.47;;
32323;SDS011;25666;44.350;9.222;2024-02-04T12:40:25;6.15;;;3.45;;
32323;SDS011;25666;44.350;9.222;2024-02-04T12:42:55;12.02;;;5.43;;
32323;SDS011;25666;44.350;9.222;2024-02-04T12:45:23;8.10;;;4.10;;
32323;SDS011;25666;44.350;9.222;2024-02-04T12:47:50;12.50;;;4.72;;
32323;SDS011;25666;44.350;9.222;2024-02-04T12:50:17;11.75;;;4.35;;
32323;SDS011;25666;44.350;9.222;2024-02-04T12:52:47;13.32;;;3.95;;
32323;SDS011;25666;44.350;9.222;2024-02-04T12:55:22;13.07;;;4.28;;
32323;SDS011;25666;44.350;9.222;2024-02-04T12:57:49;17.45;;;4.57;;
32323;SDS011;25666;44.350;9.222;2024-02-04T13:00:18;14.95;;;5.18;;
32323;SDS011;25666;44.350;9.222;2024-02-04T13:02:44;10.07;;;4.50;;
32323;SDS011;25666;44.350;9.222;2024-02-04T13:05:09;10.05;;;4.07;;
32323;SDS011;25666;44.350;9.222;2024-02-04T13:07:36;15.88;;;5.07;;
32323;SDS011;25666;44.350;9.222;2024-02-04T13:10:01;10.38;;;4.65;;
32323;SDS011;25666;44.350;9.222;2024-02-04T13:12:27;10.05;;;4.18;;
32323;SDS011;25666;44.350;9.222;2024-02-04T13:14:52;14.40;;;4.28;;
32323;SDS011;25666;44.350;9.222;2024-02-04T13:17:18;10.30;;;4.35;;
32323;SDS011;25666;44.350;9.222;2024-02-04T13:19:43;13.80;;;3.92;;
32323;SDS011;25666;44.350;9.222;2024-02-04T13:22:09;13.50;;;4.60;;
32323;SDS011;25666;44.350;9.222;2024-02-04T13:24:35;11.65;;;3.67;;
32323;SDS011;25666;44.350;9.222;2024-02-04T13:27:01;12.43;;;4.38;;
32323;SDS011;25666;44.350;9.222;2024-02-04T13:29:28;11.27;;;3.92;;
32323;SDS011;25666;44.350;9.222;2024-02-04T13:31:54;15.30;;;4.65;;
32323;SDS011;25666;44.350;9.222;2024-02-04T13:34:20;14.18;;;4.70;;
32323;SDS011;25666;44.350;9.222;2024-02-04T13:36:46;17.27;;;4.72;;
32323;SDS011;25666;44.350;9.222;2024-02-04T13:39:12;10.65;;;4.75;;
32323;SDS011;25666;44.350;9.222;2024-02-04T13:41:41;12.70;;;4.70;;
32323;SDS011;25666;44.350;9.222;2024-02-04T13:44:07;14.65;;;5.07;;
32323;SDS011;25666;44.350;9.222;2024-02-04T13:46:33;15.25;;;4.63;;
32323;SDS011;25666;44.350;9.222;2024-02-04T13:48:59;12.25;;;4.95;;
32323;SDS011;25666;44.350;9.222;2024-02-04T13:51:24;7.30;;;4.38;;
32323;SDS011;25666;44.350;9.222;2024-02-04T13:53:50;14.38;;;5.80;;
32323;SDS011;25666;44.350;9.222;2024-02-04T13:56:15;11.05;;;4.90;;
32323;SDS011;25666;44.350;9.222;2024-02-04T13:58:44;10.05;;;5.05;;
32323;SDS011;25666;44.350;9.222;2024-02-04T14:01:10;17.02;;;5.82;;
32323;SDS011;25666;44.350;9.222;2024-02-04T14:03:36;10.70;;;4.75;;
32323;SDS011;25666;44.350;9.222;2024-02-04T14:06:02;12.57;;;5.15;;
32323;SDS011;25666;44.350;9.222;2024-02-04T14:08:29;15.95;;;5.22;;
32323;SDS011;25666;44.350;9.222;2024-02-04T14:10:55;14.35;;;5.68;;
32323;SDS011;25666;44.350;9.222;2024-02-04T14:13:21;11.60;;;5.15;;
32323;SDS011;25666;44.350;9.222;2024-02-04T14:15:46;17.90;;;5.13;;
32323;SDS011;25666;44.350;9.222;2024-02-04T14:18:12;10.75;;;5.10;;
32323;SDS011;25666;44.350;9.222;2024-02-04T14:20:37;12.05;;;5.22;;
32323;SDS011;25666;44.350;9.222;2024-02-04T14:23:03;12.07;;;5.15;;
32323;SDS011;25666;44.350;9.222;2024-02-04T14:25:28;11.00;;;4.80;;
32323;SDS011;25666;44.350;9.222;2024-02-04T14:27:54;12.02;;;5.22;;
32323;SDS011;25666;44.350;9.222;2024-02-04T14:30:19;12.05;;;5.47;;
32323;SDS011;25666;44.350;9.222;2024-02-04T14:32:46;11.32;;;6.30;;
32323;SDS011;25666;44.350;9.222;2024-02-04T14:35:12;13.45;;;4.65;;
32323;SDS011;25666;44.350;9.222;2024-02-04T14:37:37;9.48;;;5.15;;
32323;SDS011;25666;44.350;9.222;2024-02-04T14:40:05;11.75;;;4.97;;
32323;SDS011;25666;44.350;9.222;2024-02-04T14:42:31;10.02;;;4.47;;
32323;SDS011;25666;44.350;9.222;2024-02-04T14:44:57;13.13;;;5.53;;